createdAt,value
2023-03-08T00:01:53.677Z,23.57
2023-03-08T00:04:42.669Z,19.97
2023-03-08T00:07:11.589Z,18.57
2023-03-08T00:09:40.561Z,21.40
2023-03-08T00:12:10.850Z,20.63
2023-03-08T00:14:39.830Z,20.67
2023-03-08T00:17:08.793Z,69.30
2023-03-08T00:19:37.824Z,80.53
2023-03-08T00:22:08.156Z,81.83
2023-03-08T00:24:37.203Z,90.53
2023-03-08T00:27:06.212Z,91.33
2023-03-08T00:29:35.118Z,52.57
2023-03-08T00:32:04.131Z,42.60
2023-03-08T00:34:32.939Z,65.53
2023-03-08T00:37:07.677Z,35.37
2023-03-08T00:39:55.991Z,25.30
2023-03-08T00:42:25.383Z,26.77
2023-03-08T00:44:54.515Z,24.30
2023-03-08T00:47:23.370Z,22.00
2023-03-08T00:49:52.255Z,26.50
2023-03-08T00:52:24.451Z,27.83
2023-03-08T00:54:53.544Z,31.90
2023-03-08T00:57:22.391Z,40.53
2023-03-08T00:59:51.290Z,28.93
2023-03-08T01:02:21.517Z,27.30
2023-03-08T01:04:50.478Z,57.53
2023-03-08T01:07:19.961Z,50.00
2023-03-08T01:09:50.462Z,77.67
2023-03-08T01:12:22.806Z,33.77
2023-03-08T01:14:51.937Z,18.87
2023-03-08T01:17:20.860Z,18.63
2023-03-08T01:19:49.692Z,17.93
2023-03-08T01:22:20.189Z,20.57
2023-03-08T01:24:51.622Z,21.47
2023-03-08T01:27:21.705Z,19.43
2023-03-08T01:29:50.720Z,16.13
2023-03-08T01:32:19.549Z,17.87
2023-03-08T01:34:48.489Z,14.53
2023-03-08T01:37:17.348Z,19.07
2023-03-08T01:39:47.555Z,17.43
2023-03-08T01:42:17.987Z,20.57
2023-03-08T01:44:55.581Z,22.63
2023-03-08T01:47:26.283Z,20.67
2023-03-08T01:50:15.102Z,15.50
2023-03-08T01:52:48.035Z,20.93
2023-03-08T01:55:18.389Z,20.77
2023-03-08T01:57:53.614Z,16.80
2023-03-08T02:00:24.553Z,22.13
2023-03-08T02:02:58.168Z,24.27
2023-03-08T02:05:28.656Z,19.43
2023-03-08T02:08:03.327Z,16.77
2023-03-08T02:10:38.155Z,17.43
2023-03-08T02:13:11.506Z,18.40
2023-03-08T02:15:44.468Z,15.20
2023-03-08T02:18:13.876Z,18.90
2023-03-08T02:20:46.543Z,134.07
2023-03-08T02:23:18.530Z,35.43
2023-03-08T02:25:53.365Z,20.80
2023-03-08T02:28:24.558Z,33.07
2023-03-08T02:30:55.452Z,180.97
2023-03-08T02:33:24.951Z,110.23
2023-03-08T02:35:54.291Z,89.73
2023-03-08T02:38:24.716Z,74.20
2023-03-08T02:40:53.781Z,70.93
2023-03-08T02:43:22.704Z,60.27
2023-03-08T02:45:51.948Z,59.27
2023-03-08T02:48:21.052Z,40.83
2023-03-08T02:50:49.928Z,43.47
2023-03-08T02:53:18.867Z,40.57
2023-03-08T02:55:49.164Z,42.03
2023-03-08T02:58:18.110Z,55.43
2023-03-08T03:00:52.091Z,26.60
2023-03-08T03:03:20.997Z,21.03
2023-03-08T03:05:52.911Z,20.23
2023-03-08T03:08:33.538Z,14.83
2023-03-08T03:11:11.665Z,14.53
2023-03-08T03:13:40.727Z,12.70
2023-03-08T03:16:11.914Z,11.40
2023-03-08T03:18:41.193Z,13.53
2023-03-08T03:21:11.676Z,42.07
2023-03-08T03:23:41.272Z,85.43
2023-03-08T03:26:16.919Z,97.47
2023-03-08T03:28:47.490Z,48.73
2023-03-08T03:31:20.942Z,21.23
2023-03-08T03:33:52.336Z,14.63
2023-03-08T03:36:23.789Z,14.10
2023-03-08T03:38:53.563Z,12.67
2023-03-08T03:41:25.340Z,13.80
2023-03-08T03:44:03.393Z,13.80
2023-03-08T03:46:32.807Z,17.33
2023-03-08T03:49:01.859Z,14.10
2023-03-08T03:51:36.451Z,14.17
2023-03-08T03:54:22.230Z,14.50
2023-03-08T03:56:52.991Z,11.07
2023-03-08T03:59:26.650Z,10.97
2023-03-08T04:02:14.907Z,11.13
2023-03-08T04:04:51.807Z,12.97
2023-03-08T04:07:25.244Z,13.70
2023-03-08T04:09:59.901Z,10.83
2023-03-08T04:12:30.604Z,10.50
2023-03-08T04:15:01.679Z,10.43
2023-03-08T04:17:33.107Z,10.00
2023-03-08T04:20:01.959Z,9.63
2023-03-08T04:22:35.209Z,13.93
2023-03-08T04:25:12.662Z,10.87
2023-03-08T04:27:51.355Z,11.50
2023-03-08T04:30:22.946Z,12.47
2023-03-08T04:32:54.292Z,14.50
2023-03-08T04:35:27.093Z,14.47
2023-03-08T04:37:56.716Z,10.50
2023-03-08T04:40:28.270Z,13.70
2023-03-08T04:43:01.774Z,11.23
2023-03-08T04:45:38.995Z,10.47
2023-03-08T04:48:15.990Z,10.77
2023-03-08T04:50:46.827Z,9.87
2023-03-08T04:53:16.363Z,9.43
2023-03-08T04:55:45.374Z,17.53
2023-03-08T04:58:16.100Z,12.17
2023-03-08T05:00:45.379Z,13.27
2023-03-08T05:03:15.024Z,9.90
2023-03-08T05:05:48.032Z,7.87
2023-03-08T05:08:17.673Z,10.50
2023-03-08T05:10:50.849Z,10.57
2023-03-08T05:13:21.352Z,12.03
2023-03-08T05:15:50.553Z,15.97
2023-03-08T05:18:20.874Z,13.47
2023-03-08T05:20:56.301Z,9.70
2023-03-08T05:23:28.484Z,32.40
2023-03-08T05:26:00.542Z,26.20
2023-03-08T05:28:33.548Z,15.70
2023-03-08T05:31:03.725Z,8.80
2023-03-08T05:33:52.353Z,10.63
2023-03-08T05:36:27.977Z,12.17
2023-03-08T05:38:59.295Z,8.90
2023-03-08T05:41:36.266Z,14.10
2023-03-08T05:44:08.950Z,23.70
2023-03-08T05:46:40.750Z,30.43
2023-03-08T05:49:11.473Z,31.43
2023-03-08T05:51:40.587Z,36.20
2023-03-08T05:54:09.594Z,31.53
2023-03-08T05:56:38.585Z,13.80
2023-03-08T05:59:19.664Z,12.30
2023-03-08T06:01:49.137Z,10.33
2023-03-08T06:04:25.506Z,10.87
2023-03-08T06:06:54.552Z,13.47
2023-03-08T06:09:27.553Z,17.13
2023-03-08T06:11:57.071Z,16.57
2023-03-08T06:14:27.923Z,13.43
2023-03-08T06:17:10.689Z,14.77
2023-03-08T06:19:59.042Z,13.73
2023-03-08T06:22:28.093Z,13.70
2023-03-08T06:24:57.840Z,14.27
2023-03-08T06:27:35.444Z,28.67
2023-03-08T06:30:12.449Z,31.07
2023-03-08T06:32:43.005Z,29.97
2023-03-08T06:35:12.849Z,30.63
2023-03-08T06:37:48.595Z,28.67
2023-03-08T06:40:19.043Z,35.20
2023-03-08T06:42:47.860Z,30.30
2023-03-08T06:45:19.478Z,23.70
2023-03-08T06:47:48.437Z,42.50
2023-03-08T06:50:18.012Z,39.17
2023-03-08T06:52:49.575Z,30.10
2023-03-08T06:55:23.656Z,39.67
2023-03-08T06:57:52.653Z,30.13
2023-03-08T07:00:24.164Z,28.13
2023-03-08T07:02:53.894Z,33.47
2023-03-08T07:05:22.873Z,47.07
2023-03-08T07:07:51.700Z,31.00
2023-03-08T07:10:22.200Z,27.07
2023-03-08T07:12:52.381Z,16.37
2023-03-08T07:15:24.455Z,15.30
2023-03-08T07:17:55.920Z,16.57
2023-03-08T07:20:26.929Z,16.90
2023-03-08T07:22:56.079Z,16.43
2023-03-08T07:25:24.955Z,17.13
2023-03-08T07:28:03.866Z,16.27
2023-03-08T07:30:34.828Z,13.73
2023-03-08T07:33:04.011Z,18.80
2023-03-08T07:35:34.961Z,12.13
2023-03-08T07:38:04.049Z,86.83
2023-03-08T07:40:32.987Z,22.17
2023-03-08T07:43:01.994Z,28.20
2023-03-08T07:45:50.942Z,39.10
2023-03-08T07:48:19.870Z,26.00
2023-03-08T07:50:49.146Z,30.80
2023-03-08T07:53:18.122Z,67.90
2023-03-08T07:55:48.092Z,87.93
2023-03-08T07:58:24.165Z,72.03
2023-03-08T08:00:55.540Z,31.87
2023-03-08T08:03:25.338Z,43.27
2023-03-08T08:05:54.328Z,48.00
2023-03-08T08:08:25.551Z,31.10
2023-03-08T08:10:54.396Z,35.63
2023-03-08T08:13:29.976Z,49.07
2023-03-08T08:16:05.657Z,35.13
2023-03-08T08:18:35.152Z,32.07
2023-03-08T08:21:05.829Z,29.13
2023-03-08T08:23:35.126Z,36.73
2023-03-08T08:26:08.501Z,21.27
2023-03-08T08:28:39.081Z,29.17
2023-03-08T08:31:12.290Z,43.80
2023-03-08T08:33:41.480Z,36.27
2023-03-08T08:36:17.608Z,42.70
2023-03-08T08:38:47.233Z,9.40
2023-03-08T08:41:34.679Z,21.60
2023-03-08T08:44:03.679Z,49.27
2023-03-08T08:46:35.264Z,21.03
2023-03-08T08:49:05.622Z,31.00
2023-03-08T08:51:34.596Z,28.03
2023-03-08T08:54:03.926Z,42.17
2023-03-08T08:56:32.945Z,15.13
2023-03-08T08:59:03.728Z,63.80
2023-03-08T09:01:35.982Z,26.50
2023-03-08T09:04:05.094Z,35.27
2023-03-08T09:06:34.079Z,34.63
2023-03-08T09:09:03.195Z,25.97
2023-03-08T09:11:32.763Z,15.10
2023-03-08T09:14:04.053Z,13.20
2023-03-08T09:16:35.795Z,16.67
2023-03-08T09:19:06.288Z,11.87
2023-03-08T09:21:35.879Z,15.67
2023-03-08T09:24:09.700Z,9.27
2023-03-08T09:26:38.973Z,11.53
2023-03-08T09:29:08.219Z,11.03
2023-03-08T09:31:40.435Z,15.87
2023-03-08T09:34:10.001Z,18.93
2023-03-08T09:36:40.444Z,23.30
2023-03-08T09:39:10.081Z,25.77
2023-03-08T09:41:57.623Z,14.13
2023-03-08T09:44:49.870Z,17.37
2023-03-08T09:47:30.004Z,17.40
2023-03-08T09:50:09.067Z,22.17
2023-03-08T09:52:41.906Z,14.47
2023-03-08T09:55:19.211Z,9.50
2023-03-08T09:57:53.845Z,10.37
2023-03-08T10:00:25.031Z,9.97
2023-03-08T10:03:41.756Z,6.57
2023-03-08T10:06:19.630Z,7.87
2023-03-08T10:09:03.970Z,9.23
2023-03-08T10:11:37.573Z,12.03
2023-03-08T10:14:17.466Z,19.97
2023-03-08T10:16:49.843Z,18.17
2023-03-08T10:19:29.068Z,10.97
2023-03-08T10:21:59.525Z,12.13
2023-03-08T10:24:33.799Z,12.40
2023-03-08T10:27:14.972Z,17.50
2023-03-08T10:29:53.475Z,10.93
2023-03-08T10:32:24.463Z,12.60
2023-03-08T10:35:13.422Z,8.17
2023-03-08T10:37:43.519Z,11.30
2023-03-08T10:40:22.244Z,15.93
2023-03-08T10:42:54.835Z,13.93
2023-03-08T10:45:25.817Z,28.20
2023-03-08T10:48:00.341Z,18.43
2023-03-08T10:51:02.028Z,19.87
2023-03-08T10:53:31.163Z,15.23
2023-03-08T10:56:02.985Z,18.10
2023-03-08T10:58:36.245Z,18.30
2023-03-08T11:01:30.876Z,28.67
2023-03-08T11:04:05.201Z,15.90
2023-03-08T11:06:37.185Z,16.97
2023-03-08T11:09:22.699Z,26.70
2023-03-08T11:11:51.834Z,39.03
2023-03-08T11:14:20.904Z,14.50
2023-03-08T11:17:03.919Z,11.13
2023-03-08T11:19:41.740Z,10.90
2023-03-08T11:22:23.460Z,11.87
2023-03-08T11:25:19.672Z,30.50
2023-03-08T11:28:07.043Z,21.03
2023-03-08T11:31:13.333Z,19.57
2023-03-08T11:33:56.172Z,23.87
2023-03-08T11:36:30.974Z,33.47
2023-03-08T11:39:07.606Z,19.63
2023-03-08T11:41:44.157Z,22.40
2023-03-08T11:44:28.031Z,20.73
2023-03-08T11:47:17.947Z,24.67
2023-03-08T11:50:06.235Z,41.57
2023-03-08T11:52:44.741Z,26.63
2023-03-08T11:55:41.058Z,33.20
2023-03-08T11:58:16.699Z,44.60
2023-03-08T12:00:47.992Z,26.63
2023-03-08T12:03:19.861Z,26.73
2023-03-08T12:06:02.913Z,25.10
2023-03-08T12:08:36.734Z,21.80
2023-03-08T12:11:11.837Z,29.43
2023-03-08T12:13:46.280Z,25.87
2023-03-08T12:16:20.136Z,30.83
2023-03-08T12:18:56.113Z,46.40
2023-03-08T12:21:46.950Z,29.83
2023-03-08T12:24:28.195Z,30.97
2023-03-08T12:27:05.577Z,27.93
2023-03-08T12:29:40.891Z,34.17
2023-03-08T12:32:12.729Z,28.17
2023-03-08T12:34:44.280Z,30.93
2023-03-08T12:37:25.286Z,37.13
2023-03-08T12:40:00.845Z,60.53
2023-03-08T12:42:38.681Z,39.70
2023-03-08T12:45:35.701Z,29.67
2023-03-08T12:48:18.692Z,36.57
2023-03-08T12:51:00.462Z,43.37
2023-03-08T12:53:36.711Z,25.37
2023-03-08T12:56:16.612Z,21.47
2023-03-08T12:58:53.826Z,22.33
2023-03-08T13:01:38.715Z,24.97
2023-03-08T13:04:39.000Z,18.20
2023-03-08T13:07:29.806Z,18.93
2023-03-08T13:10:04.751Z,22.50
2023-03-08T13:12:51.442Z,25.27
2023-03-08T13:15:25.691Z,23.27
2023-03-08T13:18:04.115Z,31.13
2023-03-08T13:20:52.669Z,37.03
2023-03-08T13:23:29.681Z,35.30
2023-03-08T13:26:35.184Z,27.50
2023-03-08T13:29:16.179Z,33.23
2023-03-08T13:31:48.167Z,41.17
2023-03-08T13:34:36.595Z,32.70
2023-03-08T13:37:05.887Z,31.00
2023-03-08T13:39:34.756Z,26.67
2023-03-08T13:42:11.954Z,25.87
2023-03-08T13:44:40.987Z,19.00
2023-03-08T13:47:24.146Z,20.77
2023-03-08T13:49:55.075Z,18.00
2023-03-08T13:52:27.029Z,22.57
2023-03-08T13:54:57.981Z,44.73
2023-03-08T13:57:29.263Z,36.93
2023-03-08T14:00:01.324Z,37.43
2023-03-08T14:02:34.934Z,37.37
2023-03-08T14:05:04.681Z,31.50
2023-03-08T14:07:34.841Z,20.80
2023-03-08T14:10:05.046Z,46.73
2023-03-08T14:12:35.806Z,45.30
2023-03-08T14:15:07.137Z,32.67
2023-03-08T14:17:38.094Z,30.43
2023-03-08T14:20:20.708Z,44.43
2023-03-08T14:22:52.043Z,24.57
2023-03-08T14:25:29.327Z,24.47
2023-03-08T14:27:59.402Z,19.33
2023-03-08T14:30:38.788Z,22.47
2023-03-08T14:33:30.656Z,19.30
2023-03-08T14:36:06.508Z,22.07
2023-03-08T14:38:37.980Z,19.23
2023-03-08T14:41:07.494Z,21.87
2023-03-08T14:43:36.578Z,20.67
2023-03-08T14:46:09.629Z,20.03
2023-03-08T14:48:50.403Z,17.80
2023-03-08T14:51:41.440Z,29.60
2023-03-08T14:54:30.614Z,35.23
2023-03-08T14:57:00.297Z,30.87
2023-03-08T14:59:48.736Z,22.07
2023-03-08T15:02:19.092Z,24.97
2023-03-08T15:04:49.610Z,25.27
2023-03-08T15:07:20.929Z,16.90
2023-03-08T15:09:53.133Z,19.17
2023-03-08T15:12:22.362Z,15.03
2023-03-08T15:14:51.284Z,16.77
2023-03-08T15:17:20.184Z,13.07
2023-03-08T15:19:51.194Z,16.37
2023-03-08T15:22:21.069Z,15.37
2023-03-08T15:24:50.056Z,14.93
2023-03-08T15:27:21.426Z,15.00
2023-03-08T15:29:50.452Z,20.63
2023-03-08T15:32:19.750Z,24.93
2023-03-08T15:34:50.913Z,27.27
2023-03-08T15:37:19.925Z,55.83
2023-03-08T15:39:49.150Z,53.00
2023-03-08T15:42:18.206Z,59.37
2023-03-08T15:44:47.043Z,36.83
2023-03-08T15:47:16.897Z,43.67
2023-03-08T15:50:00.420Z,40.57
2023-03-08T15:53:06.795Z,36.23
2023-03-08T15:55:54.392Z,19.77
2023-03-08T15:58:34.121Z,20.90
2023-03-08T16:01:17.043Z,25.87
2023-03-08T16:04:10.435Z,49.20
2023-03-08T16:06:48.875Z,40.17
2023-03-08T16:09:24.619Z,34.63
2023-03-08T16:11:54.982Z,32.33
2023-03-08T16:14:50.101Z,32.47
2023-03-08T16:17:27.804Z,29.73
2023-03-08T16:20:06.780Z,46.97
2023-03-08T16:22:37.393Z,33.23
2023-03-08T16:25:07.403Z,40.80
2023-03-08T16:27:38.208Z,40.37
2023-03-08T16:30:09.033Z,35.67
2023-03-08T16:32:38.007Z,35.93
2023-03-08T16:35:07.849Z,46.50
2023-03-08T16:37:38.867Z,40.87
2023-03-08T16:40:09.313Z,52.67
2023-03-08T16:42:56.973Z,82.17
2023-03-08T16:45:25.953Z,68.73
2023-03-08T16:47:55.183Z,83.57
2023-03-08T16:50:27.642Z,117.23
2023-03-08T16:52:59.382Z,65.90
2023-03-08T16:55:28.209Z,69.73
2023-03-08T16:57:57.157Z,83.30
2023-03-08T17:00:27.385Z,70.07
2023-03-08T17:02:56.212Z,78.70
2023-03-08T17:05:25.734Z,70.33
2023-03-08T17:07:54.573Z,52.90
2023-03-08T17:10:24.930Z,51.40
2023-03-08T17:12:53.963Z,52.13
2023-03-08T17:15:23.038Z,50.07
2023-03-08T17:17:51.924Z,65.97
2023-03-08T17:20:21.169Z,54.90
2023-03-08T17:22:50.151Z,42.63
2023-03-08T17:25:19.209Z,46.80
2023-03-08T17:27:50.408Z,90.13
2023-03-08T17:30:28.878Z,47.10
2023-03-08T17:32:59.784Z,37.10
2023-03-08T17:35:29.461Z,42.43
2023-03-08T17:37:58.358Z,38.77
2023-03-08T17:40:29.977Z,38.83
2023-03-08T17:43:02.701Z,35.93
2023-03-08T17:45:31.843Z,43.83
2023-03-08T17:48:02.884Z,41.43
2023-03-08T17:50:32.318Z,46.10
2023-03-08T17:53:01.585Z,47.50
2023-03-08T17:55:30.874Z,47.67
2023-03-08T17:58:01.265Z,57.77
2023-03-08T18:00:30.407Z,81.53
2023-03-08T18:03:00.220Z,102.93
2023-03-08T18:08:11.329Z,87.10
2023-03-08T18:10:40.938Z,87.60
2023-03-08T18:13:11.721Z,93.67
2023-03-08T18:15:40.880Z,94.13
2023-03-08T18:18:10.904Z,108.97
2023-03-08T18:20:40.410Z,111.73
2023-03-08T18:23:09.385Z,119.60
2023-03-08T18:25:40.503Z,132.30
2023-03-08T18:28:11.361Z,112.37
2023-03-08T18:30:40.860Z,114.77
2023-03-08T18:33:17.114Z,104.17
2023-03-08T18:35:49.942Z,99.37
2023-03-08T18:38:19.419Z,126.13
2023-03-08T18:40:51.408Z,144.13
2023-03-08T18:43:22.364Z,151.10
2023-03-08T18:45:52.672Z,136.23
2023-03-08T18:48:22.770Z,136.47
2023-03-08T18:50:52.110Z,126.80
2023-03-08T18:53:20.954Z,112.60
2023-03-08T18:55:57.037Z,119.03
2023-03-08T18:58:28.341Z,151.87
2023-03-08T19:01:00.554Z,145.30
2023-03-08T19:03:29.908Z,130.37
2023-03-08T19:06:05.038Z,142.60
2023-03-08T19:08:34.492Z,122.83
2023-03-08T19:11:12.598Z,139.63
2023-03-08T19:13:44.199Z,120.97
2023-03-08T19:16:20.665Z,108.47
2023-03-08T19:18:50.820Z,101.93
2023-03-08T19:21:22.110Z,95.80
2023-03-08T19:23:52.467Z,80.20
2023-03-08T19:26:41.318Z,74.17
2023-03-08T19:29:15.154Z,95.40
2023-03-08T19:31:46.616Z,75.30
2023-03-08T19:34:16.346Z,56.70
2023-03-08T19:36:46.817Z,62.57
2023-03-08T19:39:18.872Z,57.03
2023-03-08T19:41:49.484Z,75.93
2023-03-08T19:44:23.353Z,71.40
2023-03-08T19:46:53.074Z,73.47
2023-03-08T19:49:24.959Z,62.00
2023-03-08T19:51:56.082Z,53.57
2023-03-08T19:54:26.463Z,49.23
2023-03-08T19:56:56.199Z,46.40
2023-03-08T19:59:27.502Z,47.90
2023-03-08T20:01:57.573Z,61.10
2023-03-08T20:04:26.672Z,83.67
2023-03-08T20:06:55.695Z,59.47
2023-03-08T20:09:24.514Z,117.13
2023-03-08T20:11:58.880Z,110.93
2023-03-08T20:14:29.833Z,84.77
2023-03-08T20:17:00.105Z,57.93
2023-03-08T20:19:31.950Z,36.23
2023-03-08T20:22:01.434Z,32.67
2023-03-08T20:24:31.090Z,39.03
2023-03-08T20:27:00.953Z,42.17
2023-03-08T20:29:32.545Z,38.60
2023-03-08T20:32:01.660Z,36.10
2023-03-08T20:34:34.406Z,32.00
2023-03-08T20:37:03.759Z,38.73
2023-03-08T20:39:32.666Z,72.53
2023-03-08T20:42:01.582Z,70.63
2023-03-08T20:44:32.140Z,54.90
2023-03-08T20:47:01.651Z,64.93
2023-03-08T20:49:30.748Z,53.77
2023-03-08T20:52:00.868Z,54.27
2023-03-08T20:54:30.071Z,47.60
2023-03-08T20:56:59.915Z,33.40
2023-03-08T20:59:30.138Z,33.83
2023-03-08T21:02:04.658Z,43.33
2023-03-08T21:04:34.269Z,31.00
2023-03-08T21:07:03.291Z,35.67
2023-03-08T21:09:32.116Z,49.00
2023-03-08T21:12:06.667Z,39.57
2023-03-08T21:14:39.048Z,48.60
2023-03-08T21:17:09.825Z,55.27
2023-03-08T21:19:39.107Z,52.43
2023-03-08T21:22:07.959Z,74.73
2023-03-08T21:24:36.922Z,72.97
2023-03-08T21:27:05.966Z,82.93
2023-03-08T21:29:34.853Z,83.00
2023-03-08T21:32:04.451Z,90.83
2023-03-08T21:34:34.909Z,93.97
2023-03-08T21:37:03.974Z,104.10
2023-03-08T21:39:32.887Z,95.10
2023-03-08T21:42:01.972Z,123.33
2023-03-08T21:44:32.119Z,275.20
2023-03-08T21:47:01.239Z,298.17
2023-03-08T21:49:35.257Z,319.23
2023-03-08T21:52:16.491Z,353.97
2023-03-08T21:54:45.448Z,217.23
2023-03-08T21:57:14.382Z,138.33
2023-03-08T21:59:43.279Z,120.80
2023-03-08T22:02:12.723Z,83.13
2023-03-08T22:04:41.646Z,58.43
2023-03-08T22:07:16.890Z,87.13
2023-03-08T22:09:47.005Z,170.43
2023-03-08T22:12:16.309Z,74.57
2023-03-08T22:14:45.208Z,73.80
2023-03-08T22:17:14.055Z,65.50
2023-03-08T22:19:42.892Z,47.63
2023-03-08T22:22:13.234Z,28.67
2023-03-08T22:24:42.075Z,36.00
2023-03-08T22:27:13.313Z,26.30
2023-03-08T22:29:42.551Z,26.73
2023-03-08T22:32:14.724Z,26.37
2023-03-08T22:34:43.681Z,21.50
2023-03-08T22:37:14.197Z,23.47
2023-03-08T22:39:43.550Z,23.40
2023-03-08T22:42:12.574Z,21.37
2023-03-08T22:44:41.465Z,15.83
2023-03-08T22:47:10.302Z,19.13
2023-03-08T22:49:39.314Z,16.93
2023-03-08T22:52:09.742Z,19.27
2023-03-08T22:54:40.171Z,17.70
2023-03-08T22:57:09.079Z,18.53
2023-03-08T22:59:37.998Z,21.63
2023-03-08T23:02:07.107Z,19.63
2023-03-08T23:04:36.096Z,20.63
2023-03-08T23:07:05.019Z,28.57
2023-03-08T23:09:34.036Z,32.77
2023-03-08T23:12:06.327Z,29.93
2023-03-08T23:14:36.009Z,21.67
2023-03-08T23:17:05.473Z,21.23
2023-03-08T23:19:34.452Z,21.53
2023-03-08T23:22:03.912Z,18.87
2023-03-08T23:24:32.931Z,22.60
2023-03-08T23:27:03.536Z,26.17
2023-03-08T23:29:34.131Z,44.17
2023-03-08T23:32:03.393Z,51.40
2023-03-08T23:34:32.379Z,54.27
2023-03-08T23:37:03.948Z,45.43
2023-03-08T23:39:35.579Z,55.83
2023-03-08T23:42:04.868Z,51.03
2023-03-08T23:44:35.144Z,49.63
2023-03-08T23:47:03.941Z,52.40
2023-03-08T23:49:33.033Z,50.13
2023-03-08T23:52:01.895Z,48.87
2023-03-08T23:54:30.835Z,50.50
2023-03-08T23:56:59.776Z,61.17
2023-03-08T23:59:28.641Z,42.33
